Weather at Compton Abbas Aerodrome

Public forecast

Using degrees Celsius for public forecast. Weather courtesy of forecast.io.

Closest aviation weather report (METAR) to Compton Abbas Aerodrome

Report is more than 6 hours old.

Closest report is Bournemouth Airport, 16.3 nm (30.2 km) SE.

2022/11/14 15:20 (retrieved 2 years ago)

EGHH 141520Z 26007KT 9999 FEW024 SCT036 13/12 Q1006

Closest aviation forecast (TAF) to Compton Abbas Aerodrome

Forecast is more than 12 hours old.

Closest forecast is Bristol Airport, 32.8 nm (60.7 km) NW.

2023/02/22 19:28 Ammendment (retrieved 1 year ago)

TAF AMD EGGD 221917Z 2219/2318 31009KT 9999 SCT030 PROB30 TEMPO 2219/2220 6000 SHRA BKN011 BECMG 2220/2223 01010KT TEMPO 2300/2310 7000 RA SHRA BKN008